sensor_id;sensor_type;location;lat;lon;timestamp;temperature;humidity
26081;DHT22;13991;51.174;4.438;2023-05-02T00:02:11;13.20;99.90
26081;DHT22;13991;51.174;4.438;2023-05-02T00:04:36;13.30;99.90
26081;DHT22;13991;51.174;4.438;2023-05-02T00:07:02;13.20;99.90
26081;DHT22;13991;51.174;4.438;2023-05-02T00:09:28;13.00;99.90
26081;DHT22;13991;51.174;4.438;2023-05-02T00:11:54;13.00;99.90
26081;DHT22;13991;51.174;4.438;2023-05-02T00:14:20;13.00;99.90
26081;DHT22;13991;51.174;4.438;2023-05-02T00:16:45;13.00;99.90
26081;DHT22;13991;51.174;4.438;2023-05-02T00:19:11;13.00;99.90
26081;DHT22;13991;51.174;4.438;2023-05-02T00:21:37;13.00;99.90
26081;DHT22;13991;51.174;4.438;2023-05-02T00:24:02;12.90;99.90
26081;DHT22;13991;51.174;4.438;2023-05-02T00:26:28;13.00;99.90
26081;DHT22;13991;51.174;4.438;2023-05-02T00:28:54;13.10;99.90
26081;DHT22;13991;51.174;4.438;2023-05-02T00:31:20;13.30;99.90
26081;DHT22;13991;51.174;4.438;2023-05-02T00:33:45;13.30;99.90
26081;DHT22;13991;51.174;4.438;2023-05-02T00:36:15;13.30;99.90
26081;DHT22;13991;51.174;4.438;2023-05-02T00:38:41;13.40;99.90
26081;DHT22;13991;51.174;4.438;2023-05-02T00:41:07;13.30;99.90
26081;DHT22;13991;51.174;4.438;2023-05-02T00:43:32;13.50;99.90
26081;DHT22;13991;51.174;4.438;2023-05-02T00:45:58;13.40;99.90
26081;DHT22;13991;51.174;4.438;2023-05-02T00:48:24;13.20;99.90
26081;DHT22;13991;51.174;4.438;2023-05-02T00:50:50;13.20;99.90
26081;DHT22;13991;51.174;4.438;2023-05-02T00:53:16;13.30;99.90
26081;DHT22;13991;51.174;4.438;2023-05-02T00:55:43;13.40;99.90
26081;DHT22;13991;51.174;4.438;2023-05-02T00:58:14;13.40;99.90
26081;DHT22;13991;51.174;4.438;2023-05-02T01:12:04;13.00;99.90
26081;DHT22;13991;51.174;4.438;2023-05-02T01:14:34;13.00;99.90
26081;DHT22;13991;51.174;4.438;2023-05-02T01:17:07;12.90;99.90
26081;DHT22;13991;51.174;4.438;2023-05-02T01:19:51;13.00;99.90
26081;DHT22;13991;51.174;4.438;2023-05-02T01:22:19;12.90;99.90
26081;DHT22;13991;51.174;4.438;2023-05-02T01:27:33;13.40;99.90
26081;DHT22;13991;51.174;4.438;2023-05-02T01:30:02;13.50;99.90
26081;DHT22;13991;51.174;4.438;2023-05-02T01:32:30;13.30;99.90
26081;DHT22;13991;51.174;4.438;2023-05-02T01:34:58;13.30;99.90
26081;DHT22;13991;51.174;4.438;2023-05-02T01:37:26;13.20;99.90
26081;DHT22;13991;51.174;4.438;2023-05-02T01:39:54;13.10;99.90
26081;DHT22;13991;51.174;4.438;2023-05-02T01:42:21;13.10;99.90
26081;DHT22;13991;51.174;4.438;2023-05-02T01:44:49;13.20;99.90
26081;DHT22;13991;51.174;4.438;2023-05-02T01:47:16;13.20;99.90
26081;DHT22;13991;51.174;4.438;2023-05-02T01:49:44;13.10;99.90
26081;DHT22;13991;51.174;4.438;2023-05-02T01:52:11;13.10;99.90
26081;DHT22;13991;51.174;4.438;2023-05-02T01:54:39;13.20;99.90
26081;DHT22;13991;51.174;4.438;2023-05-02T01:57:07;13.30;99.90
26081;DHT22;13991;51.174;4.438;2023-05-02T01:59:34;13.10;99.90
26081;DHT22;13991;51.174;4.438;2023-05-02T02:02:01;13.00;99.90
26081;DHT22;13991;51.174;4.438;2023-05-02T02:04:29;12.90;99.90
26081;DHT22;13991;51.174;4.438;2023-05-02T02:07:01;12.80;99.90
26081;DHT22;13991;51.174;4.438;2023-05-02T02:09:28;12.80;99.90
26081;DHT22;13991;51.174;4.438;2023-05-02T02:12:07;12.70;99.90
26081;DHT22;13991;51.174;4.438;2023-05-02T02:14:37;12.60;99.90
26081;DHT22;13991;51.174;4.438;2023-05-02T02:17:12;12.70;99.90
26081;DHT22;13991;51.174;4.438;2023-05-02T02:19:40;12.60;99.90
26081;DHT22;13991;51.174;4.438;2023-05-02T02:22:07;12.40;99.90
26081;DHT22;13991;51.174;4.438;2023-05-02T02:24:35;12.50;99.90
26081;DHT22;13991;51.174;4.438;2023-05-02T02:27:02;12.50;99.90
26081;DHT22;13991;51.174;4.438;2023-05-02T02:29:28;12.50;99.90
26081;DHT22;13991;51.174;4.438;2023-05-02T02:31:53;12.60;99.90
26081;DHT22;13991;51.174;4.438;2023-05-02T02:34:19;12.70;99.90
26081;DHT22;13991;51.174;4.438;2023-05-02T02:37:16;12.80;99.90
26081;DHT22;13991;51.174;4.438;2023-05-02T02:48:43;12.80;99.90
26081;DHT22;13991;51.174;4.438;2023-05-02T02:51:30;12.90;99.90
26081;DHT22;13991;51.174;4.438;2023-05-02T02:56:58;13.00;99.90
26081;DHT22;13991;51.174;4.438;2023-05-02T02:59:33;13.20;99.90
26081;DHT22;13991;51.174;4.438;2023-05-02T03:02:06;13.30;99.90
26081;DHT22;13991;51.174;4.438;2023-05-02T03:04:36;13.10;99.90
26081;DHT22;13991;51.174;4.438;2023-05-02T03:07:03;13.00;99.90
26081;DHT22;13991;51.174;4.438;2023-05-02T03:09:40;13.10;99.90
26081;DHT22;13991;51.174;4.438;2023-05-02T03:12:06;13.20;99.90
26081;DHT22;13991;51.174;4.438;2023-05-02T03:14:32;13.10;99.90
26081;DHT22;13991;51.174;4.438;2023-05-02T03:16:57;13.20;99.90
26081;DHT22;13991;51.174;4.438;2023-05-02T03:19:23;13.00;99.90
26081;DHT22;13991;51.174;4.438;2023-05-02T03:21:48;13.10;99.90
26081;DHT22;13991;51.174;4.438;2023-05-02T03:24:14;13.00;99.90
26081;DHT22;13991;51.174;4.438;2023-05-02T03:26:41;13.00;99.90
26081;DHT22;13991;51.174;4.438;2023-05-02T03:29:06;13.00;99.90
26081;DHT22;13991;51.174;4.438;2023-05-02T03:31:32;13.10;99.90
26081;DHT22;13991;51.174;4.438;2023-05-02T03:33:58;13.10;99.90
26081;DHT22;13991;51.174;4.438;2023-05-02T03:36:24;13.10;99.90
26081;DHT22;13991;51.174;4.438;2023-05-02T03:38:49;13.20;99.90
26081;DHT22;13991;51.174;4.438;2023-05-02T03:41:15;13.20;99.90
26081;DHT22;13991;51.174;4.438;2023-05-02T03:43:41;13.30;99.90
26081;DHT22;13991;51.174;4.438;2023-05-02T03:46:07;13.30;99.90
26081;DHT22;13991;51.174;4.438;2023-05-02T03:48:34;13.30;99.90
26081;DHT22;13991;51.174;4.438;2023-05-02T03:51:01;13.10;99.90
26081;DHT22;13991;51.174;4.438;2023-05-02T03:53:27;13.20;99.90
26081;DHT22;13991;51.174;4.438;2023-05-02T03:55:53;13.10;99.90
26081;DHT22;13991;51.174;4.438;2023-05-02T03:58:19;13.10;99.90
26081;DHT22;13991;51.174;4.438;2023-05-02T04:00:45;13.10;99.90
26081;DHT22;13991;51.174;4.438;2023-05-02T04:03:11;13.00;99.90
26081;DHT22;13991;51.174;4.438;2023-05-02T04:05:37;13.10;99.90
26081;DHT22;13991;51.174;4.438;2023-05-02T04:08:02;13.10;99.90
26081;DHT22;13991;51.174;4.438;2023-05-02T04:10:28;13.10;99.90
26081;DHT22;13991;51.174;4.438;2023-05-02T04:12:54;12.90;99.90
26081;DHT22;13991;51.174;4.438;2023-05-02T04:15:20;13.00;99.90
26081;DHT22;13991;51.174;4.438;2023-05-02T04:17:45;13.10;99.90
26081;DHT22;13991;51.174;4.438;2023-05-02T04:20:11;13.10;99.90
26081;DHT22;13991;51.174;4.438;2023-05-02T04:22:37;13.10;99.90
26081;DHT22;13991;51.174;4.438;2023-05-02T04:25:04;12.90;99.90
26081;DHT22;13991;51.174;4.438;2023-05-02T04:27:31;12.90;99.90
26081;DHT22;13991;51.174;4.438;2023-05-02T04:29:57;13.00;99.90
26081;DHT22;13991;51.174;4.438;2023-05-02T04:32:22;12.80;99.90
26081;DHT22;13991;51.174;4.438;2023-05-02T04:34:48;12.80;99.90
26081;DHT22;13991;51.174;4.438;2023-05-02T04:37:14;12.60;99.90
26081;DHT22;13991;51.174;4.438;2023-05-02T04:39:41;12.60;99.90
26081;DHT22;13991;51.174;4.438;2023-05-02T04:42:07;12.60;99.90
26081;DHT22;13991;51.174;4.438;2023-05-02T04:44:33;12.80;99.90
26081;DHT22;13991;51.174;4.438;2023-05-02T04:46:58;12.80;99.90
26081;DHT22;13991;51.174;4.438;2023-05-02T04:49:24;12.80;99.90
26081;DHT22;13991;51.174;4.438;2023-05-02T04:51:50;12.80;99.90
26081;DHT22;13991;51.174;4.438;2023-05-02T04:54:17;12.80;99.90
26081;DHT22;13991;51.174;4.438;2023-05-02T04:56:42;12.70;99.90
26081;DHT22;13991;51.174;4.438;2023-05-02T04:59:08;12.70;99.90
26081;DHT22;13991;51.174;4.438;2023-05-02T05:01:35;12.70;99.90
26081;DHT22;13991;51.174;4.438;2023-05-02T05:04:01;12.70;99.90
26081;DHT22;13991;51.174;4.438;2023-05-02T05:06:27;12.70;99.90
26081;DHT22;13991;51.174;4.438;2023-05-02T05:08:53;12.60;99.90
26081;DHT22;13991;51.174;4.438;2023-05-02T05:11:19;12.60;99.90
26081;DHT22;13991;51.174;4.438;2023-05-02T05:13:45;12.60;99.90
26081;DHT22;13991;51.174;4.438;2023-05-02T05:16:11;12.80;99.90
26081;DHT22;13991;51.174;4.438;2023-05-02T05:18:37;12.80;99.90
26081;DHT22;13991;51.174;4.438;2023-05-02T05:21:06;12.90;99.90
26081;DHT22;13991;51.174;4.438;2023-05-02T05:23:33;12.90;99.90
26081;DHT22;13991;51.174;4.438;2023-05-02T05:26:08;12.90;99.90
26081;DHT22;13991;51.174;4.438;2023-05-02T05:28:34;12.80;99.90
26081;DHT22;13991;51.174;4.438;2023-05-02T05:31:07;12.90;99.90
26081;DHT22;13991;51.174;4.438;2023-05-02T05:33:34;12.90;99.90
26081;DHT22;13991;51.174;4.438;2023-05-02T05:36:13;12.80;99.90
26081;DHT22;13991;51.174;4.438;2023-05-02T05:38:39;12.80;99.90
26081;DHT22;13991;51.174;4.438;2023-05-02T05:41:05;12.70;99.90
26081;DHT22;13991;51.174;4.438;2023-05-02T05:43:32;12.80;99.90
26081;DHT22;13991;51.174;4.438;2023-05-02T05:45:58;12.70;99.90
26081;DHT22;13991;51.174;4.438;2023-05-02T05:48:24;12.60;99.90
26081;DHT22;13991;51.174;4.438;2023-05-02T05:50:50;12.60;99.90
26081;DHT22;13991;51.174;4.438;2023-05-02T05:53:22;12.50;99.90
26081;DHT22;13991;51.174;4.438;2023-05-02T05:55:51;12.60;99.90
26081;DHT22;13991;51.174;4.438;2023-05-02T05:58:17;12.50;99.90
26081;DHT22;13991;51.174;4.438;2023-05-02T06:00:42;12.60;99.90
26081;DHT22;13991;51.174;4.438;2023-05-02T06:03:08;12.50;99.90
26081;DHT22;13991;51.174;4.438;2023-05-02T06:05:34;12.50;99.90
26081;DHT22;13991;51.174;4.438;2023-05-02T06:07:59;12.70;99.90
26081;DHT22;13991;51.174;4.438;2023-05-02T06:10:25;12.80;99.90
26081;DHT22;13991;51.174;4.438;2023-05-02T06:12:51;12.80;99.90
26081;DHT22;13991;51.174;4.438;2023-05-02T06:15:17;12.80;99.90
26081;DHT22;13991;51.174;4.438;2023-05-02T06:17:43;12.80;99.90
26081;DHT22;13991;51.174;4.438;2023-05-02T06:20:09;12.80;99.90
26081;DHT22;13991;51.174;4.438;2023-05-02T06:22:35;12.90;99.90
26081;DHT22;13991;51.174;4.438;2023-05-02T06:25:01;13.00;99.90
26081;DHT22;13991;51.174;4.438;2023-05-02T06:27:27;13.00;99.90
26081;DHT22;13991;51.174;4.438;2023-05-02T06:29:53;12.90;99.90
26081;DHT22;13991;51.174;4.438;2023-05-02T06:32:18;13.00;99.90
26081;DHT22;13991;51.174;4.438;2023-05-02T06:34:44;12.90;99.90
26081;DHT22;13991;51.174;4.438;2023-05-02T06:37:10;12.90;99.90
26081;DHT22;13991;51.174;4.438;2023-05-02T06:39:36;13.10;99.90
26081;DHT22;13991;51.174;4.438;2023-05-02T06:42:02;13.30;99.90
26081;DHT22;13991;51.174;4.438;2023-05-02T06:44:28;13.40;99.90
26081;DHT22;13991;51.174;4.438;2023-05-02T06:46:54;13.40;99.90
26081;DHT22;13991;51.174;4.438;2023-05-02T06:49:22;13.30;99.90
26081;DHT22;13991;51.174;4.438;2023-05-02T06:51:48;13.50;99.90
26081;DHT22;13991;51.174;4.438;2023-05-02T06:54:14;13.70;99.90
26081;DHT22;13991;51.174;4.438;2023-05-02T06:56:41;13.80;99.90
26081;DHT22;13991;51.174;4.438;2023-05-02T06:59:06;13.70;99.90
26081;DHT22;13991;51.174;4.438;2023-05-02T07:01:32;13.70;99.90
26081;DHT22;13991;51.174;4.438;2023-05-02T07:03:58;13.70;99.90
26081;DHT22;13991;51.174;4.438;2023-05-02T07:06:23;13.70;99.90
26081;DHT22;13991;51.174;4.438;2023-05-02T07:08:49;13.80;99.90
26081;DHT22;13991;51.174;4.438;2023-05-02T07:11:15;13.80;99.90
26081;DHT22;13991;51.174;4.438;2023-05-02T07:13:40;13.80;99.90
26081;DHT22;13991;51.174;4.438;2023-05-02T07:16:06;13.80;99.90
26081;DHT22;13991;51.174;4.438;2023-05-02T07:18:32;14.00;99.90
26081;DHT22;13991;51.174;4.438;2023-05-02T07:20:58;14.10;99.90
26081;DHT22;13991;51.174;4.438;2023-05-02T07:23:25;14.00;99.90
26081;DHT22;13991;51.174;4.438;2023-05-02T07:25:51;14.20;99.90
26081;DHT22;13991;51.174;4.438;2023-05-02T07:28:16;14.30;99.90
26081;DHT22;13991;51.174;4.438;2023-05-02T07:30:42;14.60;99.90
26081;DHT22;13991;51.174;4.438;2023-05-02T07:33:08;14.80;99.90
26081;DHT22;13991;51.174;4.438;2023-05-02T07:35:33;15.10;99.90
26081;DHT22;13991;51.174;4.438;2023-05-02T07:37:59;15.30;99.90
26081;DHT22;13991;51.174;4.438;2023-05-02T07:40:25;15.40;99.90
26081;DHT22;13991;51.174;4.438;2023-05-02T07:42:50;15.40;99.90
26081;DHT22;13991;51.174;4.438;2023-05-02T07:45:16;15.30;99.90
26081;DHT22;13991;51.174;4.438;2023-05-02T07:47:43;15.50;99.90
26081;DHT22;13991;51.174;4.438;2023-05-02T07:50:10;15.20;99.90
26081;DHT22;13991;51.174;4.438;2023-05-02T07:52:35;15.10;99.90
26081;DHT22;13991;51.174;4.438;2023-05-02T07:55:01;15.10;99.90
26081;DHT22;13991;51.174;4.438;2023-05-02T07:57:27;15.00;99.90
26081;DHT22;13991;51.174;4.438;2023-05-02T07:59:53;14.90;99.90
26081;DHT22;13991;51.174;4.438;2023-05-02T08:02:21;14.80;99.90
26081;DHT22;13991;51.174;4.438;2023-05-02T08:04:48;14.90;99.90
26081;DHT22;13991;51.174;4.438;2023-05-02T08:07:14;14.80;99.90
26081;DHT22;13991;51.174;4.438;2023-05-02T08:09:40;14.70;99.90
26081;DHT22;13991;51.174;4.438;2023-05-02T08:12:06;14.60;99.90
26081;DHT22;13991;51.174;4.438;2023-05-02T08:14:31;14.60;99.90
26081;DHT22;13991;51.174;4.438;2023-05-02T08:16:58;14.60;99.90
26081;DHT22;13991;51.174;4.438;2023-05-02T08:19:24;15.00;99.90
26081;DHT22;13991;51.174;4.438;2023-05-02T08:21:49;15.30;99.90
26081;DHT22;13991;51.174;4.438;2023-05-02T08:24:15;15.50;99.90
26081;DHT22;13991;51.174;4.438;2023-05-02T08:26:41;15.50;99.90
26081;DHT22;13991;51.174;4.438;2023-05-02T08:29:07;15.60;99.90
26081;DHT22;13991;51.174;4.438;2023-05-02T08:31:36;15.80;99.90
26081;DHT22;13991;51.174;4.438;2023-05-02T08:34:01;15.90;99.90
26081;DHT22;13991;51.174;4.438;2023-05-02T08:36:27;16.20;99.90
26081;DHT22;13991;51.174;4.438;2023-05-02T08:38:53;15.80;99.90
26081;DHT22;13991;51.174;4.438;2023-05-02T08:41:19;15.90;99.90
26081;DHT22;13991;51.174;4.438;2023-05-02T08:43:45;15.70;99.90
26081;DHT22;13991;51.174;4.438;2023-05-02T08:46:12;15.90;99.90
26081;DHT22;13991;51.174;4.438;2023-05-02T08:48:43;15.70;99.90
26081;DHT22;13991;51.174;4.438;2023-05-02T08:51:12;15.40;99.90
26081;DHT22;13991;51.174;4.438;2023-05-02T08:53:39;15.10;99.90
26081;DHT22;13991;51.174;4.438;2023-05-02T08:56:10;15.40;99.90
26081;DHT22;13991;51.174;4.438;2023-05-02T08:58:38;15.70;99.90
26081;DHT22;13991;51.174;4.438;2023-05-02T09:01:23;15.90;99.90
26081;DHT22;13991;51.174;4.438;2023-05-02T09:03:53;16.10;99.90
26081;DHT22;13991;51.174;4.438;2023-05-02T09:06:21;16.30;99.90
26081;DHT22;13991;51.174;4.438;2023-05-02T09:08:49;16.20;99.90
26081;DHT22;13991;51.174;4.438;2023-05-02T09:11:17;15.90;99.90
26081;DHT22;13991;51.174;4.438;2023-05-02T09:13:45;15.80;99.90
26081;DHT22;13991;51.174;4.438;2023-05-02T09:16:11;15.40;99.90
26081;DHT22;13991;51.174;4.438;2023-05-02T09:21:20;15.40;99.90
26081;DHT22;13991;51.174;4.438;2023-05-02T09:23:54;15.20;99.90
26081;DHT22;13991;51.174;4.438;2023-05-02T09:26:22;15.40;99.90
26081;DHT22;13991;51.174;4.438;2023-05-02T09:28:49;15.40;99.90
26081;DHT22;13991;51.174;4.438;2023-05-02T09:31:20;15.60;99.90
26081;DHT22;13991;51.174;4.438;2023-05-02T09:33:46;15.70;99.90
26081;DHT22;13991;51.174;4.438;2023-05-02T09:36:14;15.80;99.90
26081;DHT22;13991;51.174;4.438;2023-05-02T09:38:45;16.00;99.90
26081;DHT22;13991;51.174;4.438;2023-05-02T09:41:11;15.90;99.90
26081;DHT22;13991;51.174;4.438;2023-05-02T09:43:38;15.70;99.90
26081;DHT22;13991;51.174;4.438;2023-05-02T09:46:08;15.50;99.90
26081;DHT22;13991;51.174;4.438;2023-05-02T09:48:56;15.70;99.90
26081;DHT22;13991;51.174;4.438;2023-05-02T09:51:25;15.80;99.90
26081;DHT22;13991;51.174;4.438;2023-05-02T09:53:51;16.10;99.90
26081;DHT22;13991;51.174;4.438;2023-05-02T09:56:17;16.20;99.90
26081;DHT22;13991;51.174;4.438;2023-05-02T09:58:43;16.40;99.90
26081;DHT22;13991;51.174;4.438;2023-05-02T10:01:19;16.20;99.90
26081;DHT22;13991;51.174;4.438;2023-05-02T10:03:48;16.30;99.90
26081;DHT22;13991;51.174;4.438;2023-05-02T10:06:18;16.30;99.90
26081;DHT22;13991;51.174;4.438;2023-05-02T10:08:45;16.20;99.90
26081;DHT22;13991;51.174;4.438;2023-05-02T10:11:12;16.20;99.90
26081;DHT22;13991;51.174;4.438;2023-05-02T10:13:40;16.20;99.90
26081;DHT22;13991;51.174;4.438;2023-05-02T10:16:07;16.50;99.90
26081;DHT22;13991;51.174;4.438;2023-05-02T10:18:51;16.40;99.90
26081;DHT22;13991;51.174;4.438;2023-05-02T10:21:25;16.20;99.90
26081;DHT22;13991;51.174;4.438;2023-05-02T10:23:52;16.10;99.90
26081;DHT22;13991;51.174;4.438;2023-05-02T10:26:18;16.60;99.90
26081;DHT22;13991;51.174;4.438;2023-05-02T10:28:48;16.90;99.90
26081;DHT22;13991;51.174;4.438;2023-05-02T10:31:14;17.00;99.90
26081;DHT22;13991;51.174;4.438;2023-05-02T10:33:41;17.40;99.30
26081;DHT22;13991;51.174;4.438;2023-05-02T10:36:08;17.50;99.40
26081;DHT22;13991;51.174;4.438;2023-05-02T10:38:35;17.10;99.10
26081;DHT22;13991;51.174;4.438;2023-05-02T10:41:05;17.20;99.00
26081;DHT22;13991;51.174;4.438;2023-05-02T10:43:34;17.40;98.70
26081;DHT22;13991;51.174;4.438;2023-05-02T10:46:01;17.50;98.10
26081;DHT22;13991;51.174;4.438;2023-05-02T10:48:29;17.70;96.80
26081;DHT22;13991;51.174;4.438;2023-05-02T10:50:57;17.40;96.70
26081;DHT22;13991;51.174;4.438;2023-05-02T10:53:27;17.30;97.20
26081;DHT22;13991;51.174;4.438;2023-05-02T10:56:17;17.50;96.70
26081;DHT22;13991;51.174;4.438;2023-05-02T10:58:44;17.60;96.10
26081;DHT22;13991;51.174;4.438;2023-05-02T11:04:07;17.30;95.60
26081;DHT22;13991;51.174;4.438;2023-05-02T11:06:35;16.90;96.40
26081;DHT22;13991;51.174;4.438;2023-05-02T11:11:46;17.20;97.30
26081;DHT22;13991;51.174;4.438;2023-05-02T11:17:04;17.60;94.50
26081;DHT22;13991;51.174;4.438;2023-05-02T11:24:49;18.10;95.10
26081;DHT22;13991;51.174;4.438;2023-05-02T11:29:59;18.30;93.20
26081;DHT22;13991;51.174;4.438;2023-05-02T11:35:22;17.80;94.00
26081;DHT22;13991;51.174;4.438;2023-05-02T11:37:55;18.10;94.00
26081;DHT22;13991;51.174;4.438;2023-05-02T11:40:22;18.40;93.40
26081;DHT22;13991;51.174;4.438;2023-05-02T11:42:49;18.40;92.30
26081;DHT22;13991;51.174;4.438;2023-05-02T11:45:15;18.30;92.20
26081;DHT22;13991;51.174;4.438;2023-05-02T11:47:41;18.00;91.50
26081;DHT22;13991;51.174;4.438;2023-05-02T11:50:08;17.90;92.70
26081;DHT22;13991;51.174;4.438;2023-05-02T11:52:38;17.90;93.70
26081;DHT22;13991;51.174;4.438;2023-05-02T11:55:05;18.20;91.80
26081;DHT22;13991;51.174;4.438;2023-05-02T11:57:33;18.10;91.70
26081;DHT22;13991;51.174;4.438;2023-05-02T11:59:59;18.10;92.00
26081;DHT22;13991;51.174;4.438;2023-05-02T12:02:42;18.20;91.90
26081;DHT22;13991;51.174;4.438;2023-05-02T12:05:12;18.10;91.70
26081;DHT22;13991;51.174;4.438;2023-05-02T12:07:45;17.90;91.80
26081;DHT22;13991;51.174;4.438;2023-05-02T12:10:13;17.90;92.30
26081;DHT22;13991;51.174;4.438;2023-05-02T12:12:41;17.90;91.40
26081;DHT22;13991;51.174;4.438;2023-05-02T12:15:09;17.90;91.40
26081;DHT22;13991;51.174;4.438;2023-05-02T12:18:02;17.90;91.30
26081;DHT22;13991;51.174;4.438;2023-05-02T12:20:28;17.90;91.10
26081;DHT22;13991;51.174;4.438;2023-05-02T12:22:53;17.70;91.00
26081;DHT22;13991;51.174;4.438;2023-05-02T12:25:19;17.80;90.00
26081;DHT22;13991;51.174;4.438;2023-05-02T12:28:17;17.90;87.40
26081;DHT22;13991;51.174;4.438;2023-05-02T12:30:49;17.30;90.90
26081;DHT22;13991;51.174;4.438;2023-05-02T12:33:16;17.60;91.20
26081;DHT22;13991;51.174;4.438;2023-05-02T12:35:42;17.90;90.90
26081;DHT22;13991;51.174;4.438;2023-05-02T12:38:11;18.00;90.60
26081;DHT22;13991;51.174;4.438;2023-05-02T12:40:38;18.30;90.30
26081;DHT22;13991;51.174;4.438;2023-05-02T12:43:05;18.30;90.10
26081;DHT22;13991;51.174;4.438;2023-05-02T12:45:32;17.90;89.70
26081;DHT22;13991;51.174;4.438;2023-05-02T12:48:24;17.80;89.20
26081;DHT22;13991;51.174;4.438;2023-05-02T12:50:52;17.30;90.50
26081;DHT22;13991;51.174;4.438;2023-05-02T12:53:40;17.50;90.10
26081;DHT22;13991;51.174;4.438;2023-05-02T12:56:06;17.90;90.50
26081;DHT22;13991;51.174;4.438;2023-05-02T12:58:48;18.50;88.70
26081;DHT22;13991;51.174;4.438;2023-05-02T13:01:14;18.60;89.00
26081;DHT22;13991;51.174;4.438;2023-05-02T13:03:41;18.90;88.40
26081;DHT22;13991;51.174;4.438;2023-05-02T13:06:07;18.90;85.70
26081;DHT22;13991;51.174;4.438;2023-05-02T13:08:34;18.60;84.90
26081;DHT22;13991;51.174;4.438;2023-05-02T13:11:01;18.80;83.40
26081;DHT22;13991;51.174;4.438;2023-05-02T13:13:27;18.60;84.20
26081;DHT22;13991;51.174;4.438;2023-05-02T13:15:54;18.20;84.40
26081;DHT22;13991;51.174;4.438;2023-05-02T13:18:20;18.10;85.00
26081;DHT22;13991;51.174;4.438;2023-05-02T13:20:46;18.30;85.10
26081;DHT22;13991;51.174;4.438;2023-05-02T13:23:11;18.80;86.40
26081;DHT22;13991;51.174;4.438;2023-05-02T13:25:37;18.80;83.60
26081;DHT22;13991;51.174;4.438;2023-05-02T13:28:03;19.00;82.20
26081;DHT22;13991;51.174;4.438;2023-05-02T13:30:28;19.20;82.50
26081;DHT22;13991;51.174;4.438;2023-05-02T13:32:54;19.40;79.30
26081;DHT22;13991;51.174;4.438;2023-05-02T13:35:22;19.40;78.30
26081;DHT22;13991;51.174;4.438;2023-05-02T13:37:49;18.90;79.40
26081;DHT22;13991;51.174;4.438;2023-05-02T13:40:15;18.80;79.70
26081;DHT22;13991;51.174;4.438;2023-05-02T13:42:41;18.80;79.40
26081;DHT22;13991;51.174;4.438;2023-05-02T13:45:07;18.70;80.70
26081;DHT22;13991;51.174;4.438;2023-05-02T13:47:33;18.70;80.20
26081;DHT22;13991;51.174;4.438;2023-05-02T13:49:58;18.20;80.30
26081;DHT22;13991;51.174;4.438;2023-05-02T13:52:24;18.50;79.80
26081;DHT22;13991;51.174;4.438;2023-05-02T13:54:50;18.40;79.50
26081;DHT22;13991;51.174;4.438;2023-05-02T13:57:15;18.30;79.10
26081;DHT22;13991;51.174;4.438;2023-05-02T13:59:41;18.30;80.80
26081;DHT22;13991;51.174;4.438;2023-05-02T14:02:07;18.50;80.10
26081;DHT22;13991;51.174;4.438;2023-05-02T14:04:32;18.60;79.40
26081;DHT22;13991;51.174;4.438;2023-05-02T14:06:58;18.80;79.20
26081;DHT22;13991;51.174;4.438;2023-05-02T14:09:24;18.90;79.40
26081;DHT22;13991;51.174;4.438;2023-05-02T14:11:50;19.10;78.10
26081;DHT22;13991;51.174;4.438;2023-05-02T14:14:16;19.40;75.10
26081;DHT22;13991;51.174;4.438;2023-05-02T14:16:42;19.20;75.20
26081;DHT22;13991;51.174;4.438;2023-05-02T14:19:07;19.30;75.20
26081;DHT22;13991;51.174;4.438;2023-05-02T14:21:33;19.60;75.20
26081;DHT22;13991;51.174;4.438;2023-05-02T14:23:59;19.40;73.80
26081;DHT22;13991;51.174;4.438;2023-05-02T14:26:25;19.30;73.80
26081;DHT22;13991;51.174;4.438;2023-05-02T14:28:50;19.20;75.30
26081;DHT22;13991;51.174;4.438;2023-05-02T14:31:17;19.00;75.00
26081;DHT22;13991;51.174;4.438;2023-05-02T14:33:42;18.60;73.90
26081;DHT22;13991;51.174;4.438;2023-05-02T14:36:08;18.40;75.70
26081;DHT22;13991;51.174;4.438;2023-05-02T14:38:34;18.30;76.10
26081;DHT22;13991;51.174;4.438;2023-05-02T14:40:59;18.60;75.10
26081;DHT22;13991;51.174;4.438;2023-05-02T14:43:27;18.70;73.60
26081;DHT22;13991;51.174;4.438;2023-05-02T14:45:53;18.90;72.80
26081;DHT22;13991;51.174;4.438;2023-05-02T14:48:18;18.70;73.80
26081;DHT22;13991;51.174;4.438;2023-05-02T14:50:44;18.90;74.40
26081;DHT22;13991;51.174;4.438;2023-05-02T14:53:10;19.00;72.70
26081;DHT22;13991;51.174;4.438;2023-05-02T14:55:39;19.00;72.80
26081;DHT22;13991;51.174;4.438;2023-05-02T14:58:05;18.60;72.00
26081;DHT22;13991;51.174;4.438;2023-05-02T15:00:33;18.70;73.40
26081;DHT22;13991;51.174;4.438;2023-05-02T15:03:05;18.90;72.70
26081;DHT22;13991;51.174;4.438;2023-05-02T15:05:32;19.10;71.70
26081;DHT22;13991;51.174;4.438;2023-05-02T15:07:58;19.00;70.20
26081;DHT22;13991;51.174;4.438;2023-05-02T15:10:24;19.30;70.60
26081;DHT22;13991;51.174;4.438;2023-05-02T15:12:49;19.30;70.30
26081;DHT22;13991;51.174;4.438;2023-05-02T15:15:19;19.30;71.80
26081;DHT22;13991;51.174;4.438;2023-05-02T15:17:49;19.00;70.30
26081;DHT22;13991;51.174;4.438;2023-05-02T15:20:15;19.00;69.90
26081;DHT22;13991;51.174;4.438;2023-05-02T15:22:41;18.90;70.30
26081;DHT22;13991;51.174;4.438;2023-05-02T15:25:07;18.70;71.50
26081;DHT22;13991;51.174;4.438;2023-05-02T15:27:33;18.90;70.60
26081;DHT22;13991;51.174;4.438;2023-05-02T15:29:58;18.90;71.70
26081;DHT22;13991;51.174;4.438;2023-05-02T15:32:24;18.80;72.00
26081;DHT22;13991;51.174;4.438;2023-05-02T15:34:50;18.60;71.70
26081;DHT22;13991;51.174;4.438;2023-05-02T15:37:16;18.90;72.50
26081;DHT22;13991;51.174;4.438;2023-05-02T15:39:41;18.90;71.50
26081;DHT22;13991;51.174;4.438;2023-05-02T15:42:07;19.10;70.10
26081;DHT22;13991;51.174;4.438;2023-05-02T15:44:34;19.20;69.20
26081;DHT22;13991;51.174;4.438;2023-05-02T15:47:01;19.10;69.20
26081;DHT22;13991;51.174;4.438;2023-05-02T15:49:27;19.10;69.40
26081;DHT22;13991;51.174;4.438;2023-05-02T15:52:00;19.10;69.50
26081;DHT22;13991;51.174;4.438;2023-05-02T15:54:25;18.90;68.50
26081;DHT22;13991;51.174;4.438;2023-05-02T15:56:52;18.80;70.10
26081;DHT22;13991;51.174;4.438;2023-05-02T15:59:18;18.30;71.20
26081;DHT22;13991;51.174;4.438;2023-05-02T16:01:44;18.60;71.60
26081;DHT22;13991;51.174;4.438;2023-05-02T16:04:10;18.80;71.70
26081;DHT22;13991;51.174;4.438;2023-05-02T16:06:36;18.60;71.90
26081;DHT22;13991;51.174;4.438;2023-05-02T16:09:02;18.90;70.30
26081;DHT22;13991;51.174;4.438;2023-05-02T16:11:31;18.60;72.00
26081;DHT22;13991;51.174;4.438;2023-05-02T16:13:57;18.70;71.80
26081;DHT22;13991;51.174;4.438;2023-05-02T16:16:23;18.80;70.90
26081;DHT22;13991;51.174;4.438;2023-05-02T16:18:49;19.10;69.10
26081;DHT22;13991;51.174;4.438;2023-05-02T16:21:14;19.10;69.80